Grand Mercury — HOOC — position and weather

sailwx.info

Track history (hours):
 
Tides and Currents Weather Stations Pressure Air Temp Water Temp Dewpoint Dewpoint Depression Visibility Wind Speed Wind Dir Waves Ship Positions

Grand Mercury

Last reported at 2015-May-19 13:20 UTC. Time now 2015-May-28 16:15 UTC.
Position N 48°40' W 127°25'.
Warning: this ship's position is 9 days out of date.

Length 200 m; draft 8.7 m.

Type: Cargo ship. MMSI: 355649000.

Date/timePositionNaut miles runAvg speedWind from/ knotsBaromVisibWave heightAir tempDewpointWater temp
2015-May-19 13:20N 48°40' W 127°25'1417.0
2015-May-19 12:30N 48°40' W 127°03'1617.0
2015-May-19 11:34N 48°40' W 126°39'1716.9
2015-May-19 10:34N 48°40' W 126°13'1716.7
2015-May-19 09:34N 48°37' W 125°49'1717.0
2015-May-19 08:34N 48°31' W 125°25'1717.3
2015-May-19 07:33N 48°31' W 124°58'1716.9
2015-May-19 06:34N 48°28' W 124°33'1817.8
2015-May-19 05:34N 48°21' W 124°08'1918.3
2015-May-19 04:32N 48°16' W 123°41'1414.3
2015-May-19 03:33N 48°10' W 123°23'1312.7
2015-May-19 02:32N 48°13' W 123°04'1615.8
2015-May-19 01:32N 48°08' W 122°41'1515.5
2015-May-19 00:34N 47°55' W 122°29'1110.5
2015-May-18 23:32N 47°59' W 122°14'0 0.1
2015-May-18 22:29N 47°59' W 122°13'0 0.0
2015-May-18 21:32N 47°59' W 122°13'0 0.0
2015-May-18 20:29N 47°59' W 122°13'0 0.0
2015-May-18 19:32N 47°59' W 122°13'0 0.0
2015-May-18 18:32N 47°59' W 122°13'0 0.0
2015-May-18 17:32N 47°59' W 122°13'0 0.0
2015-May-18 16:29N 47°59' W 122°13'0 0.0
2015-May-18 15:32N 47°59' W 122°13'0 0.0
2015-May-18 14:32N 47°59' W 122°13'0 0.0
2015-May-18 13:32N 47°59' W 122°13'0 0.0
2015-May-18 12:32N 47°59' W 122°13'0 0.0
2015-May-18 11:32N 47°59' W 122°13'0 0.0
2015-May-18 10:32N 47°59' W 122°13'0 0.0
2015-May-18 09:32N 47°59' W 122°13'0 0.0
2015-May-18 08:32N 47°59' W 122°13'0 0.0
2015-May-18 07:32N 47°59' W 122°13'0 0.0
2015-May-18 06:32N 47°59' W 122°13'0 0.0
2015-May-18 05:32N 47°59' W 122°13'0 0.0
2015-May-18 04:32N 47°59' W 122°13'0 0.0
2015-May-18 03:32N 47°59' W 122°13'0 0.1
2015-May-18 02:33N 47°59' W 122°14'5 5.5
2015-May-18 01:33N 47°56' W 122°21'1211.8
2015-May-18 00:33N 47°60' W 122°37'1717.2
2015-May-17 23:33N 48°11' W 122°56'1818.0
2015-May-17 22:33N 48°10' W 123°23'10 9.8
2015-May-17 21:33N 48°14' W 123°37'1515.4
2015-May-17 20:33N 48°15' W 123°60'1918.9
2015-May-17 19:33N 48°23' W 124°25'1717.5
2015-May-17 18:33N 48°29' W 124°50'1615.6
2015-May-17 17:33N 48°18' W 125°07'1817.9
2015-May-17 16:33N 48°01' W 125°16'5217.0
2015-May-17 13:30N 47°10' W 125°02'1617.0
2015-May-17 12:33N 46°56' W 124°51'1717.1
2015-May-17 11:34N 46°41' W 124°38'1717.1
2015-May-17 10:33N 46°26' W 124°25'1616.5
2015-May-17 09:34N 46°13' W 124°11'1413.6
2015-May-17 08:33N 46°12' W 123°51'1010.4
2015-May-17 07:34N 46°15' W 123°37'1110.9
2015-May-17 06:33N 46°10' W 123°24'1414.3
2015-May-17 05:33N 46°09' W 123°03'1211.7
2015-May-17 04:33N 46°01' W 122°52'1414.3
2015-May-17 03:33N 45°47' W 122°47'8 7.7
2015-May-17 02:28N 45°39' W 122°45'0 0.0
2015-May-17 01:31N 45°39' W 122°45'0 0.0
2015-May-17 00:28N 45°39' W 122°45'0 0.0
2015-May-16 23:31N 45°39' W 122°45'0 0.0
2015-May-16 22:25N 45°39' W 122°45'0 0.0
2015-May-16 21:31N 45°39' W 122°45'0 0.0
2015-May-16 20:31N 45°39' W 122°45'0 0.0
2015-May-16 19:28N 45°39' W 122°45'0 0.0
2015-May-16 18:31N 45°39' W 122°45'0 0.0
2015-May-16 17:31N 45°39' W 122°45'0 0.0
2015-May-16 16:31N 45°39' W 122°45'0 0.0
2015-May-16 15:25N 45°39' W 122°45'0 0.0
2015-May-16 14:31N 45°39' W 122°45'0 0.0
2015-May-16 13:25N 45°39' W 122°45'0 0.0
2015-May-16 12:31N 45°39' W 122°45'0 0.0
2015-May-16 11:31N 45°39' W 122°45'0 0.0
2015-May-16 10:31N 45°39' W 122°45'0 0.0
2015-May-16 09:31N 45°39' W 122°45'0 0.0
2015-May-16 08:25N 45°39' W 122°45'0 0.0
2015-May-16 07:25N 45°39' W 122°45'0 0.0
2015-May-16 06:31N 45°39' W 122°45'0 0.0
2015-May-16 05:16N 45°39' W 122°45'0 0.0
2015-May-16 04:34N 45°39' W 122°45'0 0.0
2015-May-16 03:25N 45°39' W 122°45'0 0.0
2015-May-16 02:31N 45°39' W 122°45'0 0.0
2015-May-16 01:31N 45°39' W 122°45'0 0.0
2015-May-16 00:25N 45°39' W 122°45'0 0.0
2015-May-15 23:28N 45°39' W 122°45'0 0.0
2015-May-15 22:28N 45°39' W 122°45'0 0.0
2015-May-15 21:25N 45°39' W 122°45'0 0.0
2015-May-15 20:33N 45°39' W 122°45'0 0.0
2015-May-15 19:25N 45°39' W 122°45'0 0.0
2015-May-15 18:28N 45°39' W 122°45'0 0.0
2015-May-15 17:31N 45°39' W 122°45'0 0.0
2015-May-15 16:31N 45°39' W 122°45'0 0.0
2015-May-15 15:31N 45°39' W 122°45'0 0.0
2015-May-15 14:31N 45°39' W 122°45'0 0.0
2015-May-15 13:25N 45°39' W 122°45'0 0.0
2015-May-15 12:31N 45°39' W 122°45'0 0.0
2015-May-15 11:31N 45°39' W 122°45'0 0.0
2015-May-15 10:31N 45°39' W 122°45'0 0.0
2015-May-15 09:31N 45°39' W 122°45'0 0.0
2015-May-15 08:31N 45°39' W 122°45'0 0.0
2015-May-15 07:33N 45°39' W 122°45'8 7.5
2015-May-15 06:33N 45°46' W 122°46'1313.0
2015-May-15 05:33N 45°59' W 122°50'1111.1
2015-May-15 04:33N 46°08' W 123°00'1313.4
2015-May-15 03:33N 46°09' W 123°19'1110.8
2015-May-15 02:33N 46°16' W 123°30'1413.8
2015-May-15 01:33N 46°12' W 123°49'1312.7
2015-May-15 00:33N 46°13' W 124°08'10 9.7
2015-May-14 23:33N 46°04' W 124°11'1616.4
2015-May-14 22:34N 45°48' W 124°10'1716.5
2015-May-14 21:34N 45°31' W 124°11'1616.1
2015-May-14 20:33N 45°15' W 124°12'3216.3
2015-May-14 18:33N 44°43' W 124°13'35917.1
2015-May-13 21:33N 38°44' W 123°59'1918.8
2015-May-13 20:33N 38°25' W 123°60'1818.5
2015-May-13 19:33N 38°07' W 123°60'1818.2
2015-May-13 18:33N 37°49' W 123°55'2518.5
2015-May-13 17:14N 37°26' W 123°44'1418.4
2015-May-13 16:28N 37°13' W 123°38'2118.7
2015-May-13 15:22N 36°53' W 123°29'1618.4
2015-May-13 14:30N 36°39' W 123°22'3417.6
2015-May-13 12:33N 36°07' W 123°07'1817.1
2015-May-13 11:31N 35°50' W 122°59'1916.8
2015-May-13 10:22N 35°32' W 122°51'1416.6
2015-May-13 09:32N 35°19' W 122°45'23512.9
2015-May-12 15:15N 32°37' W 119°19'1115.6
2015-May-12 14:33N 32°37' W 119°06'1716.6
2015-May-12 13:33N 32°37' W 118°47'1716.9
2015-May-12 12:33N 32°37' W 118°27'1717.4
2015-May-12 11:33N 32°37' W 118°06'1818.1
2015-May-12 10:33N 32°37' W 117°45'1818.1
2015-May-12 09:33N 32°37' W 117°23'5 5.0
2015-May-12 08:33N 32°37' W 117°17'7 6.9
2015-May-12 07:34N 32°43' W 117°13'6 6.5
2015-May-12 06:33N 32°39' W 117°07'0 0.0
2015-May-12 05:33N 32°39' W 117°07'0 0.0
2015-May-12 04:33N 32°39' W 117°07'0 0.0
2015-May-12 03:33N 32°39' W 117°07'0 0.0
2015-May-12 02:33N 32°39' W 117°07'0 0.0
2015-May-12 01:33N 32°39' W 117°07'0 0.0
2015-May-12 00:33N 32°39' W 117°07'0 0.0
2015-May-11 23:33N 32°39' W 117°07'0 0.0
2015-May-11 22:33N 32°39' W 117°07'0 0.0
2015-May-11 21:33N 32°39' W 117°07'6 6.5
2015-May-11 20:33N 32°43' W 117°13'6 5.7
2015-May-11 19:33N 32°38' W 117°17'8 7.9
2015-May-11 18:33N 32°42' W 117°25'8 8.5
2015-May-11 17:33N 32°48' W 117°31'1111.3
2015-May-11 16:33N 32°55' W 117°42'6 5.7
2015-May-11 15:33N 32°58' W 117°48'1514.7
2015-May-11 14:33N 33°04' W 118°04'1717.1
2015-May-11 13:33N 33°12' W 118°23'1616.4
2015-May-11 12:33N 33°20' W 118°40'1717.0
2015-May-11 11:32N 33°34' W 118°52'1716.8
2015-May-11 10:32N 33°48' W 119°03'1515.0
2015-May-11 09:32N 34°02' W 119°09'93 3.2
2015-May-10 04:26N 34°24' W 120°58'1111.6
2015-May-10 03:30N 34°24' W 121°12'6 5.5
2015-May-10 02:30N 34°25' W 121°18'3311.1
2015-May-09 23:31N 34°26' W 121°58'1717.2
2015-May-09 22:32N 34°26' W 122°19'  
Track history (hours):
 
Tides and Currents Weather Stations Pressure Air Temp Water Temp Dewpoint Dewpoint Depression Visibility Wind Speed Wind Dir Waves Ship Positions

Grand Mercury

Last reported at 2015-May-19 13:20 UTC. Time now 2015-May-28 16:15 UTC.
Position N 48°40' W 127°25'.
Warning: this ship's position is 9 days out of date.

Length 200 m; draft 8.7 m.

Type: Cargo ship. MMSI: 355649000.

Date/timePositionNaut miles runAvg speedWind from/ knotsBaromVisibWave heightAir tempDewpointWater temp
2015-May-19 13:20N 48°40' W 127°25'1417.0
2015-May-19 12:30N 48°40' W 127°03'1617.0
2015-May-19 11:34N 48°40' W 126°39'1716.9
2015-May-19 10:34N 48°40' W 126°13'1716.7
2015-May-19 09:34N 48°37' W 125°49'1717.0
2015-May-19 08:34N 48°31' W 125°25'1717.3
2015-May-19 07:33N 48°31' W 124°58'1716.9
2015-May-19 06:34N 48°28' W 124°33'1817.8
2015-May-19 05:34N 48°21' W 124°08'1918.3
2015-May-19 04:32N 48°16' W 123°41'1414.3
2015-May-19 03:33N 48°10' W 123°23'1312.7
2015-May-19 02:32N 48°13' W 123°04'1615.8
2015-May-19 01:32N 48°08' W 122°41'1515.5
2015-May-19 00:34N 47°55' W 122°29'1110.5
2015-May-18 23:32N 47°59' W 122°14'0 0.1
2015-May-18 22:29N 47°59' W 122°13'0 0.0
2015-May-18 21:32N 47°59' W 122°13'0 0.0
2015-May-18 20:29N 47°59' W 122°13'0 0.0
2015-May-18 19:32N 47°59' W 122°13'0 0.0
2015-May-18 18:32N 47°59' W 122°13'0 0.0
2015-May-18 17:32N 47°59' W 122°13'0 0.0
2015-May-18 16:29N 47°59' W 122°13'0 0.0
2015-May-18 15:32N 47°59' W 122°13'0 0.0
2015-May-18 14:32N 47°59' W 122°13'0 0.0
2015-May-18 13:32N 47°59' W 122°13'0 0.0
2015-May-18 12:32N 47°59' W 122°13'0 0.0
2015-May-18 11:32N 47°59' W 122°13'0 0.0
2015-May-18 10:32N 47°59' W 122°13'0 0.0
2015-May-18 09:32N 47°59' W 122°13'0 0.0
2015-May-18 08:32N 47°59' W 122°13'0 0.0
2015-May-18 07:32N 47°59' W 122°13'0 0.0
2015-May-18 06:32N 47°59' W 122°13'0 0.0
2015-May-18 05:32N 47°59' W 122°13'0 0.0
2015-May-18 04:32N 47°59' W 122°13'0 0.0
2015-May-18 03:32N 47°59' W 122°13'0 0.1
2015-May-18 02:33N 47°59' W 122°14'5 5.5
2015-May-18 01:33N 47°56' W 122°21'1211.8
2015-May-18 00:33N 47°60' W 122°37'1717.2
2015-May-17 23:33N 48°11' W 122°56'1818.0
2015-May-17 22:33N 48°10' W 123°23'10 9.8
2015-May-17 21:33N 48°14' W 123°37'1515.4
2015-May-17 20:33N 48°15' W 123°60'1918.9
2015-May-17 19:33N 48°23' W 124°25'1717.5
2015-May-17 18:33N 48°29' W 124°50'1615.6
2015-May-17 17:33N 48°18' W 125°07'1817.9
2015-May-17 16:33N 48°01' W 125°16'5217.0
2015-May-17 13:30N 47°10' W 125°02'1617.0
2015-May-17 12:33N 46°56' W 124°51'1717.1
2015-May-17 11:34N 46°41' W 124°38'1717.1
2015-May-17 10:33N 46°26' W 124°25'1616.5
2015-May-17 09:34N 46°13' W 124°11'1413.6
2015-May-17 08:33N 46°12' W 123°51'1010.4
2015-May-17 07:34N 46°15' W 123°37'1110.9
2015-May-17 06:33N 46°10' W 123°24'1414.3
2015-May-17 05:33N 46°09' W 123°03'1211.7
2015-May-17 04:33N 46°01' W 122°52'1414.3
2015-May-17 03:33N 45°47' W 122°47'8 7.7
2015-May-17 02:28N 45°39' W 122°45'0 0.0
2015-May-17 01:31N 45°39' W 122°45'0 0.0
2015-May-17 00:28N 45°39' W 122°45'0 0.0
2015-May-16 23:31N 45°39' W 122°45'0 0.0
2015-May-16 22:25N 45°39' W 122°45'0 0.0
2015-May-16 21:31N 45°39' W 122°45'0 0.0
2015-May-16 20:31N 45°39' W 122°45'0 0.0
2015-May-16 19:28N 45°39' W 122°45'0 0.0
2015-May-16 18:31N 45°39' W 122°45'0 0.0
2015-May-16 17:31N 45°39' W 122°45'0 0.0
2015-May-16 16:31N 45°39' W 122°45'0 0.0
2015-May-16 15:25N 45°39' W 122°45'0 0.0
2015-May-16 14:31N 45°39' W 122°45'0 0.0
2015-May-16 13:25N 45°39' W 122°45'0 0.0
2015-May-16 12:31N 45°39' W 122°45'0 0.0
2015-May-16 11:31N 45°39' W 122°45'0 0.0
2015-May-16 10:31N 45°39' W 122°45'0 0.0
2015-May-16 09:31N 45°39' W 122°45'0 0.0
2015-May-16 08:25N 45°39' W 122°45'0 0.0
2015-May-16 07:25N 45°39' W 122°45'0 0.0
2015-May-16 06:31N 45°39' W 122°45'0 0.0
2015-May-16 05:16N 45°39' W 122°45'0 0.0
2015-May-16 04:34N 45°39' W 122°45'0 0.0
2015-May-16 03:25N 45°39' W 122°45'0 0.0
2015-May-16 02:31N 45°39' W 122°45'0 0.0
2015-May-16 01:31N 45°39' W 122°45'0 0.0
2015-May-16 00:25N 45°39' W 122°45'0 0.0
2015-May-15 23:28N 45°39' W 122°45'0 0.0
2015-May-15 22:28N 45°39' W 122°45'0 0.0
2015-May-15 21:25N 45°39' W 122°45'0 0.0
2015-May-15 20:33N 45°39' W 122°45'0 0.0
2015-May-15 19:25N 45°39' W 122°45'0 0.0
2015-May-15 18:28N 45°39' W 122°45'0 0.0
2015-May-15 17:31N 45°39' W 122°45'0 0.0
2015-May-15 16:31N 45°39' W 122°45'0 0.0
2015-May-15 15:31N 45°39' W 122°45'0 0.0
2015-May-15 14:31N 45°39' W 122°45'0 0.0
2015-May-15 13:25N 45°39' W 122°45'0 0.0
2015-May-15 12:31N 45°39' W 122°45'0 0.0
2015-May-15 11:31N 45°39' W 122°45'0 0.0
2015-May-15 10:31N 45°39' W 122°45'0 0.0
2015-May-15 09:31N 45°39' W 122°45'0 0.0
2015-May-15 08:31N 45°39' W 122°45'0 0.0
2015-May-15 07:33N 45°39' W 122°45'8 7.5
2015-May-15 06:33N 45°46' W 122°46'1313.0
2015-May-15 05:33N 45°59' W 122°50'1111.1
2015-May-15 04:33N 46°08' W 123°00'1313.4
2015-May-15 03:33N 46°09' W 123°19'1110.8
2015-May-15 02:33N 46°16' W 123°30'1413.8
2015-May-15 01:33N 46°12' W 123°49'1312.7
2015-May-15 00:33N 46°13' W 124°08'10 9.7
2015-May-14 23:33N 46°04' W 124°11'1616.4
2015-May-14 22:34N 45°48' W 124°10'1716.5
2015-May-14 21:34N 45°31' W 124°11'1616.1
2015-May-14 20:33N 45°15' W 124°12'3216.3
2015-May-14 18:33N 44°43' W 124°13'35917.1
2015-May-13 21:33N 38°44' W 123°59'1918.8
2015-May-13 20:33N 38°25' W 123°60'1818.5
2015-May-13 19:33N 38°07' W 123°60'1818.2
2015-May-13 18:33N 37°49' W 123°55'2518.5
2015-May-13 17:14N 37°26' W 123°44'1418.4
2015-May-13 16:28N 37°13' W 123°38'2118.7
2015-May-13 15:22N 36°53' W 123°29'1618.4
2015-May-13 14:30N 36°39' W 123°22'3417.6
2015-May-13 12:33N 36°07' W 123°07'1817.1
2015-May-13 11:31N 35°50' W 122°59'1916.8
2015-May-13 10:22N 35°32' W 122°51'1416.6
2015-May-13 09:32N 35°19' W 122°45'23512.9
2015-May-12 15:15N 32°37' W 119°19'1115.6
2015-May-12 14:33N 32°37' W 119°06'1716.6
2015-May-12 13:33N 32°37' W 118°47'1716.9
2015-May-12 12:33N 32°37' W 118°27'1717.4
2015-May-12 11:33N 32°37' W 118°06'1818.1
2015-May-12 10:33N 32°37' W 117°45'1818.1
2015-May-12 09:33N 32°37' W 117°23'5 5.0
2015-May-12 08:33N 32°37' W 117°17'7 6.9
2015-May-12 07:34N 32°43' W 117°13'6 6.5
2015-May-12 06:33N 32°39' W 117°07'0 0.0
2015-May-12 05:33N 32°39' W 117°07'0 0.0
2015-May-12 04:33N 32°39' W 117°07'0 0.0
2015-May-12 03:33N 32°39' W 117°07'0 0.0
2015-May-12 02:33N 32°39' W 117°07'0 0.0
2015-May-12 01:33N 32°39' W 117°07'0 0.0
2015-May-12 00:33N 32°39' W 117°07'0 0.0
2015-May-11 23:33N 32°39' W 117°07'0 0.0
2015-May-11 22:33N 32°39' W 117°07'0 0.0
2015-May-11 21:33N 32°39' W 117°07'6 6.5
2015-May-11 20:33N 32°43' W 117°13'6 5.7
2015-May-11 19:33N 32°38' W 117°17'8 7.9
2015-May-11 18:33N 32°42' W 117°25'8 8.5
2015-May-11 17:33N 32°48' W 117°31'1111.3
2015-May-11 16:33N 32°55' W 117°42'6 5.7
2015-May-11 15:33N 32°58' W 117°48'1514.7
2015-May-11 14:33N 33°04' W 118°04'1717.1
2015-May-11 13:33N 33°12' W 118°23'1616.4
2015-May-11 12:33N 33°20' W 118°40'1717.0
2015-May-11 11:32N 33°34' W 118°52'1716.8
2015-May-11 10:32N 33°48' W 119°03'1515.0
2015-May-11 09:32N 34°02' W 119°09'93 3.2
2015-May-10 04:26N 34°24' W 120°58'1111.6
2015-May-10 03:30N 34°24' W 121°12'6 5.5
2015-May-10 02:30N 34°25' W 121°18'3311.1
2015-May-09 23:31N 34°26' W 121°58'1717.2
2015-May-09 22:32N 34°26' W 122°19'  

Dump ship's entire track history